Time;durP1;ratioP1;P1;durP2;ratioP2;P2;SDS_P1;SDS_P2;PMS_P1;PMS_P2;Temp;Humidity;BMP_temperature;BMP_pressure;BME280_temperature;BME280_humidity;BME280_pressure;Samples;Min_cycle;Max_cycle;Signal;HPM_P1;HPM_P2
2022/10/09 00:01:18;;;;;;;13.35;4.47;;;;;;;11.22;83.30;102444.78;5035071;28;20072;-57
2022/10/09 00:04:06;;;;;;;;;;;;;;;11.18;82.39;102438.94;5037306;28;20107;-55
2022/10/09 00:06:53;;;;;;;9.32;4.00;;;;;;;11.09;82.67;102441.19;5015032;28;19967;-57
2022/10/09 00:09:20;;;;;;;10.98;4.40;;;;;;;11.01;82.83;102444.22;5035384;28;20412;-54
2022/10/09 00:11:48;;;;;;;9.73;4.20;;;;;;;10.98;83.06;102444.69;5034182;28;20487;-53
2022/10/09 00:14:22;;;;;;;10.95;4.18;;;;;;;10.95;83.48;102442.44;5035842;28;20079;-55
2022/10/09 00:16:49;;;;;;;13.00;4.57;;;;;;;10.96;84.06;102443.25;5030889;28;20034;-56
2022/10/09 00:19:17;;;;;;;15.93;4.38;;;;;;;10.93;83.05;102441.81;5031656;28;20073;-57
2022/10/09 00:21:45;;;;;;;13.07;4.60;;;;;;;10.85;83.51;102433.97;5036187;28;20038;-57
2022/10/09 00:24:12;;;;;;;11.20;4.07;;;;;;;10.81;83.48;102438.22;5040400;28;20049;-57
2022/10/09 00:26:40;;;;;;;11.25;4.40;;;;;;;10.80;84.09;102441.97;5045478;28;20042;-56
2022/10/09 00:29:07;;;;;;;10.38;4.10;;;;;;;10.80;83.80;102441.97;5016061;28;20057;-53
2022/10/09 00:31:35;;;;;;;12.45;4.85;;;;;;;10.79;83.62;102440.34;5034062;28;20095;-52
2022/10/09 00:34:03;;;;;;;13.95;5.13;;;;;;;10.73;83.91;102446.72;5036401;28;20083;-56
2022/10/09 00:36:30;;;;;;;11.63;4.43;;;;;;;10.73;84.35;102442.09;5037785;28;20047;-57
2022/10/09 00:38:58;;;;;;;10.27;4.30;;;;;;;10.78;84.41;102444.97;5033228;28;20041;-57
2022/10/09 00:41:28;;;;;;;10.38;4.57;;;;;;;10.81;83.42;102440.94;5035234;28;20045;-56
2022/10/09 00:44:01;;;;;;;10.82;4.15;;;;;;;10.81;83.62;102446.41;5034830;28;20049;-52
2022/10/09 00:46:34;;;;;;;13.50;4.25;;;;;;;10.81;83.70;102438.22;5035489;28;20044;-55
2022/10/09 00:49:24;;;;;;;11.32;4.63;;;;;;;10.81;83.81;102438.22;5035763;28;20496;-56
2022/10/09 00:51:53;;;;;;;12.23;4.75;;;;;;;10.83;83.69;102441.56;5035598;28;20049;-56
2022/10/09 00:54:23;;;;;;;10.02;4.60;;;;;;;10.81;83.69;102440.94;5035145;28;20042;-55
2022/10/09 00:56:51;;;;;;;11.93;4.32;;;;;;;10.77;83.94;102437.81;5035267;28;20045;-54
2022/10/09 00:59:19;;;;;;;13.52;4.85;;;;;;;10.78;84.08;102444.97;5030583;28;20034;-54
2022/10/09 01:01:46;;;;;;;13.98;4.50;;;;;;;10.82;84.20;102439.88;5034305;28;20053;-56
2022/10/09 01:04:34;;;;;;;10.82;4.50;;;;;;;10.88;84.36;102441.69;5036275;28;20053;-54
2022/10/09 01:07:21;;;;;;;15.00;4.70;;;;;;;10.93;83.72;102441.00;5034047;28;20133;-58
2022/10/09 01:09:56;;;;;;;14.13;5.22;;;;;;;10.92;83.69;102440.19;5034631;28;20045;-57
2022/10/09 01:12:38;;;;;;;13.38;4.93;;;;;;;10.92;83.91;102437.44;5034404;28;20522;-57
2022/10/09 01:15:16;;;;;;;12.27;4.30;;;;;;;10.95;83.53;102433.44;5034991;28;20095;-55
2022/10/09 01:18:06;;;;;;;12.23;4.78;;;;;;;10.96;83.52;102435.91;5026227;28;20034;-57
2022/10/09 01:20:54;;;;;;;11.48;4.53;;;;;;;10.90;82.78;102423.22;5023917;28;20431;-53
2022/10/09 01:23:48;;;;;;;12.80;5.00;;;;;;;10.82;82.36;102420.78;5033878;28;20050;-56
2022/10/09 01:26:54;;;;;;;12.95;4.63;;;;;;;10.71;82.78;102421.56;5035429;28;20045;-54
2022/10/09 01:29:25;;;;;;;9.80;4.22;;;;;;;10.65;83.39;102418.72;5034210;28;20045;-53
2022/10/09 01:31:53;;;;;;;10.68;4.75;;;;;;;10.60;83.52;102406.81;5000635;28;20107;-54
2022/10/09 01:34:22;;;;;;;11.32;4.50;;;;;;;10.58;83.45;102412.50;5034510;28;20420;-54
2022/10/09 01:36:51;;;;;;;12.40;4.28;;;;;;;10.56;83.30;102408.31;5047710;28;20037;-53
2022/10/09 01:39:20;;;;;;;9.48;4.18;;;;;;;10.56;83.48;102419.22;5032656;28;20068;-55
2022/10/09 01:41:49;;;;;;;10.70;4.07;;;;;;;10.55;83.39;102423.03;5034178;28;20046;-54
2022/10/09 01:44:24;;;;;;;13.65;5.03;;;;;;;10.46;83.10;102419.75;5013841;28;20046;-57
2022/10/09 01:46:52;;;;;;;13.95;4.57;;;;;;;10.41;83.71;102416.88;5027919;28;20049;-55
2022/10/09 01:49:22;;;;;;;11.65;4.53;;;;;;;10.42;83.70;102418.56;5018059;28;20041;-55
2022/10/09 01:52:05;;;;;;;11.45;4.28;;;;;;;10.41;83.83;102409.56;5034251;28;20033;-56
2022/10/09 01:54:55;;;;;;;12.27;4.95;;;;;;;10.43;84.10;102403.88;5022032;28;20038;-56
2022/10/09 01:57:37;;;;;;;10.40;4.57;;;;;;;10.33;82.83;102398.97;5029909;28;20048;-57
2022/10/09 02:00:08;;;;;;;15.40;5.07;;;;;;;10.20;83.80;102399.94;5032966;28;20107;-58
2022/10/09 02:02:39;;;;;;;13.57;5.07;;;;;;;10.11;84.14;102400.44;5028734;28;20574;-58
2022/10/09 02:05:11;;;;;;;14.27;4.63;;;;;;;10.10;84.80;102394.19;5026170;28;20048;-55
2022/10/09 02:07:39;;;;;;;11.55;4.88;;;;;;;10.17;85.07;102388.63;5033423;28;20069;-57
2022/10/09 02:10:08;;;;;;;11.25;4.68;;;;;;;10.19;84.88;102384.63;5039241;28;20048;-53
2022/10/09 02:12:39;;;;;;;11.02;4.75;;;;;;;10.19;84.61;102389.25;5038517;28;20053;-56
2022/10/09 02:15:08;;;;;;;13.45;4.80;;;;;;;10.16;84.30;102393.25;5005597;28;20056;-57
2022/10/09 02:17:41;;;;;;;12.00;5.25;;;;;;;10.16;84.17;102393.25;5021464;28;20050;-57
2022/10/09 02:20:24;;;;;;;13.20;4.88;;;;;;;10.09;84.36;102386.22;5030699;28;20407;-53
2022/10/09 02:22:53;;;;;;;10.73;4.40;;;;;;;10.06;84.58;102392.97;5034621;28;20048;-53
2022/10/09 02:25:21;;;;;;;10.32;5.03;;;;;;;10.05;84.36;102394.00;5012207;28;20550;-52
2022/10/09 02:27:48;;;;;;;11.88;4.70;;;;;;;10.01;84.25;102392.81;5025364;28;20495;-52
2022/10/09 02:30:17;;;;;;;13.07;4.80;;;;;;;9.97;84.65;102383.41;5033592;28;20042;-58
2022/10/09 02:32:45;;;;;;;11.18;4.78;;;;;;;9.96;84.62;102377.13;5032485;28;20033;-56
2022/10/09 02:35:13;;;;;;;11.18;5.07;;;;;;;9.97;84.73;102383.41;5034121;28;20752;-55
2022/10/09 02:37:40;;;;;;;12.27;5.15;;;;;;;9.96;85.13;102387.19;5044855;28;20084;-56
2022/10/09 02:40:08;;;;;;;12.30;4.72;;;;;;;9.94;85.03;102378.44;5033284;28;20041;-56
2022/10/09 02:42:37;;;;;;;9.65;4.65;;;;;;;9.96;85.11;102376.31;5032377;28;20503;-55
2022/10/09 02:45:05;;;;;;;9.43;4.70;;;;;;;9.98;84.46;102374.16;5033125;28;20034;-57
2022/10/09 02:47:33;;;;;;;14.45;5.20;;;;;;;10.02;84.41;102375.38;5027995;28;20393;-57
2022/10/09 02:50:00;;;;;;;16.67;6.03;;;;;;;10.01;83.94;102376.47;5028554;28;20045;-53
2022/10/09 02:52:28;;;;;;;13.60;5.07;;;;;;;9.99;84.10;102370.41;5020086;28;20045;-54
2022/10/09 02:54:56;;;;;;;10.18;5.03;;;;;;;9.97;83.56;102377.97;5020691;28;20049;-54
2022/10/09 02:57:23;;;;;;;11.50;5.35;;;;;;;9.94;84.06;102376.53;5021904;28;20046;-55
2022/10/09 02:59:51;;;;;;;13.50;5.07;;;;;;;9.90;84.08;102371.75;5031367;28;20443;-57
2022/10/09 03:02:18;;;;;;;12.65;5.20;;;;;;;9.88;82.98;102377.41;5033094;28;20511;-53
2022/10/09 03:04:46;;;;;;;10.02;4.47;;;;;;;9.79;83.64;102378.78;5033702;28;20041;-54
2022/10/09 03:07:14;;;;;;;12.02;4.72;;;;;;;9.75;84.04;102372.94;5032281;28;20064;-53
2022/10/09 03:09:41;;;;;;;12.25;5.25;;;;;;;9.69;83.73;102365.69;5026159;28;20100;-54
2022/10/09 03:12:09;;;;;;;13.05;5.38;;;;;;;9.50;84.14;102363.97;5027024;28;20054;-57
2022/10/09 03:14:36;;;;;;;10.82;4.95;;;;;;;9.34;85.22;102365.38;5044694;28;20041;-54
2022/10/09 03:17:04;;;;;;;10.18;4.82;;;;;;;9.32;86.22;102365.56;5040468;28;20062;-52
2022/10/09 03:19:32;;;;;;;11.15;4.97;;;;;;;9.35;86.42;102359.69;5042767;28;20048;-56
2022/10/09 03:21:59;;;;;;;12.02;5.50;;;;;;;9.38;86.03;102356.53;5036391;28;20046;-55
2022/10/09 03:24:27;;;;;;;14.82;5.22;;;;;;;9.42;86.23;102364.25;5045103;28;20038;-55
2022/10/09 03:26:54;;;;;;;13.80;5.00;;;;;;;9.49;86.65;102357.69;5051511;28;20044;-53
2022/10/09 03:29:22;;;;;;;13.27;5.25;;;;;;;9.56;86.26;102361.19;5044126;28;20042;-56
2022/10/09 03:31:50;;;;;;;12.52;5.28;;;;;;;9.62;85.89;102364.91;5028096;28;20517;-55
2022/10/09 03:34:20;;;;;;;16.65;4.93;;;;;;;9.60;85.96;102356.97;5037410;28;20091;-58
2022/10/09 03:36:47;;;;;;;10.68;4.75;;;;;;;9.63;86.25;102363.84;5034983;28;20103;-57
2022/10/09 03:39:15;;;;;;;12.82;4.88;;;;;;;9.66;86.00;102360.69;5037190;28;20438;-57
2022/10/09 03:41:43;;;;;;;10.13;5.18;;;;;;;9.67;85.49;102354.19;5018915;28;20042;-56
2022/10/09 03:44:10;;;;;;;11.48;5.18;;;;;;;9.67;85.39;102354.19;5039483;28;20466;-54
2022/10/09 03:46:38;;;;;;;14.52;5.47;;;;;;;9.64;85.51;102351.91;5037550;28;20447;-54
2022/10/09 03:49:06;;;;;;;11.75;4.80;;;;;;;9.63;85.32;102352.16;5035496;28;20072;-56
2022/10/09 03:51:34;;;;;;;12.77;4.75;;;;;;;9.60;85.37;102351.53;5036357;28;20045;-54
2022/10/09 03:54:02;;;;;;;11.45;4.32;;;;;;;9.57;85.56;102346.53;5036283;28;20426;-56
2022/10/09 03:56:29;;;;;;;16.10;5.07;;;;;;;9.53;84.77;102352.66;5035416;28;20060;-56
2022/10/09 03:58:57;;;;;;;12.48;4.45;;;;;;;9.45;85.18;102350.19;5035414;28;20038;-52
2022/10/09 04:01:24;;;;;;;13.25;5.05;;;;;;;9.39;85.87;102360.09;5028389;28;20431;-55
2022/10/09 04:03:52;;;;;;;10.75;4.40;;;;;;;9.39;86.15;102360.91;5034882;28;20083;-56
2022/10/09 04:06:20;;;;;;;11.93;5.03;;;;;;;9.39;86.07;102370.97;5035169;28;20045;-53
2022/10/09 04:09:08;;;;;;;13.77;4.57;;;;;;;9.33;85.54;102366.41;5034241;28;20049;-57
2022/10/09 04:11:36;;;;;;;11.02;4.47;;;;;;;9.30;86.54;102364.97;5034687;28;20065;-57
2022/10/09 04:14:04;;;;;;;13.38;4.55;;;;;;;9.29;86.54;102362.47;5036202;28;20041;-53
2022/10/09 04:16:31;;;;;;;11.20;4.75;;;;;;;9.25;86.41;102364.78;5037281;28;20042;-54
2022/10/09 04:18:59;;;;;;;12.05;4.90;;;;;;;9.24;86.57;102363.16;5035574;28;20048;-56
2022/10/09 04:21:26;;;;;;;11.32;4.60;;;;;;;9.26;86.47;102357.47;5034948;28;20042;-58
2022/10/09 04:23:55;;;;;;;11.93;4.78;;;;;;;9.24;86.26;102354.97;5034393;28;20517;-58
2022/10/09 04:26:25;;;;;;;15.32;5.32;;;;;;;9.23;86.26;102361.47;5034613;28;20388;-53
2022/10/09 04:28:52;;;;;;;12.45;5.25;;;;;;;9.21;86.22;102363.56;5042808;28;20041;-54
2022/10/09 04:31:20;;;;;;;12.93;4.55;;;;;;;9.18;86.77;102364.00;5034228;28;20049;-54
2022/10/09 04:33:48;;;;;;;10.25;4.47;;;;;;;9.20;86.10;102370.06;5007528;28;20500;-57
2022/10/09 04:36:15;;;;;;;13.52;4.80;;;;;;;9.21;85.98;102362.75;5034585;28;20542;-53
2022/10/09 04:38:43;;;;;;;9.98;4.38;;;;;;;9.15;85.92;102356.31;5022098;28;20067;-55
2022/10/09 04:41:10;;;;;;;15.73;5.55;;;;;;;9.09;85.78;102359.88;5029955;28;20037;-55
2022/10/09 04:43:38;;;;;;;12.88;4.78;;;;;;;9.10;86.44;102358.84;5025569;28;20048;-56
2022/10/09 04:46:07;;;;;;;14.77;4.88;;;;;;;9.12;86.33;102359.47;5034489;28;20488;-53
2022/10/09 04:48:39;;;;;;;11.57;5.10;;;;;;;9.14;86.55;102362.81;5033511;28;20478;-54
2022/10/09 04:51:08;;;;;;;11.02;4.88;;;;;;;9.11;85.55;102347.75;5030535;28;20037;-56
2022/10/09 04:53:37;;;;;;;11.07;5.20;;;;;;;9.05;85.50;102347.81;5025266;28;20393;-54
2022/10/09 04:56:07;;;;;;;10.00;4.47;;;;;;;8.99;85.86;102354.13;5030000;28;20037;-57
2022/10/09 04:58:36;;;;;;;14.27;4.60;;;;;;;8.92;86.43;102355.00;5025836;28;20045;-56
2022/10/09 05:01:08;;;;;;;12.25;4.93;;;;;;;8.93;86.51;102345.78;5025541;28;20066;-54
2022/10/09 05:03:36;;;;;;;12.05;5.00;;;;;;;8.91;86.65;102345.16;5045881;28;20041;-55
2022/10/09 05:06:06;;;;;;;10.65;4.40;;;;;;;8.93;86.79;102351.22;5033785;28;20045;-53
2022/10/09 05:08:34;;;;;;;12.07;4.72;;;;;;;8.96;85.54;102339.06;5030766;28;20552;-51
2022/10/09 05:11:04;;;;;;;11.88;4.97;;;;;;;8.86;85.97;102345.00;5034461;28;20072;-53
2022/10/09 05:13:35;;;;;;;10.48;4.85;;;;;;;8.78;85.94;102339.84;5014009;28;20117;-56
2022/10/09 05:16:05;;;;;;;13.35;4.82;;;;;;;8.75;86.75;102337.53;5031247;28;20041;-53
2022/10/09 05:18:34;;;;;;;13.88;4.85;;;;;;;8.73;86.76;102332.34;5022245;28;20069;-55
2022/10/09 05:21:05;;;;;;;11.98;4.93;;;;;;;8.74;87.02;102335.88;5033685;28;20092;-56
2022/10/09 05:23:34;;;;;;;12.02;4.90;;;;;;;8.72;86.84;102333.38;5032996;28;20045;-55
2022/10/09 05:26:05;;;;;;;10.98;4.78;;;;;;;8.72;86.60;102336.09;5025100;28;20038;-52
2022/10/09 05:28:33;;;;;;;15.60;5.00;;;;;;;8.69;87.16;102333.00;5034293;28;20038;-53
2022/10/09 05:31:05;;;;;;;10.25;4.63;;;;;;;8.68;86.79;102328.59;5033947;28;20459;-53
2022/10/09 05:33:34;;;;;;;10.88;4.72;;;;;;;8.62;87.26;102329.47;5034812;28;20044;-55
2022/10/09 05:36:03;;;;;;;11.18;4.22;;;;;;;8.57;87.93;102332.03;5019900;28;20053;-53
2022/10/09 05:38:33;;;;;;;12.35;4.30;;;;;;;8.55;87.60;102331.41;5034700;28;20052;-56
2022/10/09 05:41:04;;;;;;;13.30;4.82;;;;;;;8.45;87.48;102324.53;5025591;28;21076;-60
2022/10/09 05:43:34;;;;;;;12.00;5.03;;;;;;;8.35;87.90;102328.75;4999756;28;20042;-53
2022/10/09 05:46:31;;;;;;;13.52;4.70;;;;;;;8.35;88.16;102326.03;5026655;28;20041;-53
2022/10/09 05:49:04;;;;;;;12.18;4.93;;;;;;;8.30;88.42;102326.69;5033361;28;20061;-49
2022/10/09 05:51:33;;;;;;;13.93;5.32;;;;;;;8.26;89.27;102330.88;5033017;28;20078;-54
2022/10/09 05:54:02;;;;;;;10.27;5.40;;;;;;;8.27;89.39;102327.09;5032900;28;20140;-53
2022/10/09 05:56:32;;;;;;;14.20;5.88;;;;;;;8.31;90.25;102333.78;5033202;28;20053;-52
2022/10/09 05:59:03;;;;;;;10.85;4.93;;;;;;;8.33;89.91;102334.38;5015591;28;20068;-50
2022/10/09 06:01:39;;;;;;;12.77;5.10;;;;;;;8.32;90.29;102340.84;5020365;28;20489;-52
2022/10/09 06:04:12;;;;;;;14.57;5.43;;;;;;;8.30;90.41;102334.84;5031589;28;20384;-53
2022/10/09 06:06:40;;;;;;;13.65;5.03;;;;;;;8.37;90.11;102330.22;5026923;28;20037;-51
2022/10/09 06:09:09;;;;;;;13.05;5.07;;;;;;;8.37;90.23;102340.22;5029354;28;20056;-51
2022/10/09 06:11:38;;;;;;;12.77;5.45;;;;;;;8.38;90.41;102336.47;5024462;28;20046;-52
2022/10/09 06:14:09;;;;;;;10.75;4.88;;;;;;;8.41;91.07;102328.72;5033546;28;20484;-54
2022/10/09 06:16:42;;;;;;;13.32;4.82;;;;;;;8.46;90.65;102334.34;5025704;28;20042;-53
2022/10/09 06:19:12;;;;;;;15.45;5.55;;;;;;;8.49;90.64;102325.78;5032458;28;20041;-51
2022/10/09 06:21:40;;;;;;;13.40;5.25;;;;;;;8.51;90.34;102334.56;5031736;28;20041;-55
2022/10/09 06:24:18;;;;;;;15.23;5.20;;;;;;;8.52;90.38;102343.53;5033830;28;20045;-54
2022/10/09 06:26:52;;;;;;;13.15;5.05;;;;;;;8.53;90.92;102339.75;5032019;28;20049;-55
2022/10/09 06:29:20;;;;;;;15.55;6.03;;;;;;;8.52;91.31;102336.22;5031073;28;20045;-54
2022/10/09 06:31:48;;;;;;;12.80;5.28;;;;;;;8.54;91.90;102336.00;5032288;28;20057;-53
2022/10/09 06:34:16;;;;;;;12.50;5.18;;;;;;;8.60;91.46;102334.28;5033858;28;20048;-56
2022/10/09 06:36:44;;;;;;;12.13;4.82;;;;;;;8.63;91.77;102342.00;5031190;28;20051;-53
2022/10/09 06:39:12;;;;;;;10.63;4.82;;;;;;;8.67;92.22;102338.63;5028352;28;20033;-52
2022/10/09 06:41:40;;;;;;;13.43;4.72;;;;;;;8.72;91.97;102337.97;5031701;28;20071;-52
2022/10/09 06:44:23;;;;;;;12.43;4.72;;;;;;;8.72;91.80;102336.09;5033647;28;20052;-58
2022/10/09 06:46:51;;;;;;;12.63;4.50;;;;;;;8.70;91.31;102340.06;5033398;28;20091;-52
2022/10/09 06:49:18;;;;;;;11.85;5.50;;;;;;;8.70;92.30;102340.91;5024642;28;20056;-54
2022/10/09 06:51:46;;;;;;;12.52;4.97;;;;;;;8.72;91.83;102338.81;5033839;28;20045;-55
2022/10/09 06:54:16;;;;;;;12.50;4.68;;;;;;;8.74;92.11;102341.31;5034539;28;20061;-57
2022/10/09 06:56:44;;;;;;;12.00;4.65;;;;;;;8.76;93.01;102346.53;5031863;28;20060;-61
2022/10/09 06:59:12;;;;;;;12.30;4.78;;;;;;;8.79;92.67;102335.22;5021580;28;20045;-56
2022/10/09 07:01:40;;;;;;;11.68;4.55;;;;;;;8.81;93.00;102341.28;5013532;28;20551;-56
2022/10/09 07:04:13;;;;;;;9.88;4.43;;;;;;;8.85;92.98;102345.22;5033126;28;20034;-55
2022/10/09 07:06:43;;;;;;;11.02;4.68;;;;;;;8.90;93.51;102345.41;5033332;28;20045;-61
2022/10/09 07:09:12;;;;;;;13.00;4.72;;;;;;;8.92;93.52;102338.69;5031208;28;20072;-60
2022/10/09 07:11:47;;;;;;;11.32;4.78;;;;;;;8.97;93.76;102340.72;5022672;28;20451;-60
2022/10/09 07:14:15;;;;;;;11.80;4.93;;;;;;;8.99;93.89;102340.53;5026922;28;20045;-55
2022/10/09 07:16:45;;;;;;;14.25;4.90;;;;;;;9.01;93.82;102341.13;5029878;28;20483;-56
2022/10/09 07:19:14;;;;;;;16.67;5.25;;;;;;;9.04;93.72;102341.50;5012380;28;20092;-58
2022/10/09 07:21:45;;;;;;;16.65;5.32;;;;;;;9.11;93.71;102344.19;5027372;28;20044;-60
2022/10/09 07:24:14;;;;;;;12.73;4.82;;;;;;;9.15;94.27;102342.72;5031108;28;20045;-57
2022/10/09 07:26:44;;;;;;;16.92;5.50;;;;;;;9.16;93.77;102338.91;5032395;28;20141;-59
2022/10/09 07:29:14;;;;;;;12.50;5.53;;;;;;;9.17;94.07;102338.72;5032324;28;20125;-61
2022/10/09 07:31:42;;;;;;;11.30;4.25;;;;;;;9.22;93.64;102338.06;5041512;28;20053;-58
2022/10/09 07:34:11;;;;;;;15.05;4.63;;;;;;;9.27;93.73;102337.38;5049420;28;20038;-57
2022/10/09 07:36:39;;;;;;;17.42;4.65;;;;;;;9.30;93.91;102334.22;5058651;28;20108;-61
2022/10/09 07:39:07;;;;;;;13.45;4.22;;;;;;;9.33;93.55;102333.75;5033660;28;20041;-55
2022/10/09 07:41:35;;;;;;;11.30;4.10;;;;;;;9.36;93.71;102331.44;5039982;28;20042;-59
2022/10/09 07:44:03;;;;;;;14.27;4.35;;;;;;;9.39;93.63;102338.31;5049224;28;20099;-59
2022/10/09 07:46:31;;;;;;;12.63;4.22;;;;;;;9.41;93.68;102330.78;5040363;28;20042;-56
2022/10/09 07:49:01;;;;;;;13.45;4.85;;;;;;;9.44;93.69;102334.94;5033803;28;20045;-58
2022/10/09 07:51:30;;;;;;;14.48;4.82;;;;;;;9.48;93.85;102336.16;5033825;28;20049;-57
2022/10/09 07:53:59;;;;;;;10.70;4.20;;;;;;;9.49;93.95;102332.38;5031837;28;20045;-60
2022/10/09 07:56:30;;;;;;;17.27;4.53;;;;;;;9.51;94.18;102336.53;5032906;28;20110;-60
2022/10/09 07:59:00;;;;;;;13.65;4.88;;;;;;;9.53;94.47;102339.88;5032912;28;20045;-57
2022/10/09 08:01:29;;;;;;;11.93;4.45;;;;;;;9.60;94.14;102340.66;5020216;28;20053;-60
2022/10/09 08:03:58;;;;;;;15.20;4.95;;;;;;;9.66;93.92;102332.63;5031873;28;20041;-59
2022/10/09 08:06:26;;;;;;;15.23;4.60;;;;;;;9.70;93.63;102331.13;5019312;28;20064;-57
2022/10/09 08:08:56;;;;;;;12.00;4.18;;;;;;;9.74;93.66;102333.19;5036416;28;20068;-59
2022/10/09 08:11:25;;;;;;;12.00;4.30;;;;;;;9.78;93.26;102330.84;5035007;28;20447;-59
2022/10/09 08:13:53;;;;;;;13.23;4.65;;;;;;;9.79;93.15;102330.63;5034918;28;20492;-60
2022/10/09 08:16:22;;;;;;;13.00;4.80;;;;;;;9.82;93.04;102319.28;5035363;28;20581;-60
2022/10/09 08:18:57;;;;;;;13.15;4.35;;;;;;;9.86;92.94;102318.81;5036285;28;20140;-57
2022/10/09 08:21:27;;;;;;;11.50;3.70;;;;;;;9.87;92.72;102326.75;5018822;28;20558;-57
2022/10/09 08:23:56;;;;;;;13.63;4.40;;;;;;;9.90;92.79;102325.47;5035965;28;20474;-57
2022/10/09 08:26:26;;;;;;;11.98;4.65;;;;;;;9.90;92.85;102311.84;5051472;28;20061;-59
2022/10/09 08:29:00;;;;;;;12.07;4.25;;;;;;;9.94;92.97;102313.06;5035045;28;20045;-57
2022/10/09 08:31:28;;;;;;;13.55;5.05;;;;;;;9.97;93.04;102318.06;5022061;28;20439;-58
2022/10/09 08:33:58;;;;;;;11.52;4.70;;;;;;;9.96;93.36;102311.78;5051536;28;20408;-57
2022/10/09 08:36:26;;;;;;;11.57;4.47;;;;;;;10.01;93.44;102319.28;5034792;28;20041;-56
2022/10/09 08:38:54;;;;;;;13.80;4.93;;;;;;;10.05;93.32;102306.84;5034743;28;20546;-56
2022/10/09 08:41:47;;;;;;;17.90;4.50;;;;;;;10.08;93.61;102303.69;5035269;28;20492;-57
2022/10/09 08:44:35;;;;;;;14.50;5.55;;;;;;;10.10;93.21;102301.59;5035927;28;20167;-59
2022/10/09 08:47:31;;;;;;;16.02;6.20;;;;;;;10.16;93.49;102302.53;5016636;28;20137;-59
2022/10/09 08:50:16;;;;;;;17.70;5.53;;;;;;;10.19;93.04;102305.63;5033388;28;20072;-60
2022/10/09 08:52:59;;;;;;;14.65;5.35;;;;;;;10.23;93.28;102300.56;5034803;28;20045;-59
2022/10/09 08:55:48;;;;;;;12.52;5.32;;;;;;;10.24;93.30;102303.03;5020653;28;20490;-61
2022/10/09 08:58:18;;;;;;;20.13;5.28;;;;;;;10.28;93.51;102306.19;5034581;28;20049;-57
2022/10/09 09:00:53;;;;;;;14.80;5.32;;;;;;;10.31;93.38;102302.16;5028453;28;20427;-59
2022/10/09 09:03:42;;;;;;;13.15;5.35;;;;;;;10.33;92.53;102291.88;5044784;28;20076;-57
2022/10/09 09:06:28;;;;;;;16.20;5.28;;;;;;;10.35;92.82;102281.59;5019538;28;20567;-62
2022/10/09 09:09:15;;;;;;;15.23;5.55;;;;;;;10.39;92.79;102283.63;5031442;28;20419;-54
2022/10/09 09:12:07;;;;;;;14.85;5.40;;;;;;;10.45;92.82;102287.31;5035088;28;20061;-59
2022/10/09 09:14:52;;;;;;;13.93;5.63;;;;;;;10.53;93.08;102278.78;5035264;28;20407;-56
2022/10/09 09:17:39;;;;;;;19.07;7.40;;;;;;;10.63;95.66;102279.09;5035199;28;20068;-55
2022/10/09 09:20:21;;;;;;;14.25;6.10;;;;;;;10.71;94.70;102274.38;5035069;28;20291;-55
2022/10/09 09:22:49;;;;;;;18.25;5.55;;;;;;;10.74;93.37;102269.28;5034900;28;20037;-60
2022/10/09 09:25:30;;;;;;;18.67;5.82;;;;;;;10.74;91.66;102273.91;5034917;28;20120;-57
2022/10/09 09:28:03;;;;;;;12.95;4.82;;;;;;;10.74;91.27;102271.16;5034035;28;20045;-58
2022/10/09 09:30:43;;;;;;;13.98;4.57;;;;;;;10.74;91.05;102271.16;5033770;28;20496;-60
2022/10/09 09:33:20;;;;;;;17.23;5.13;;;;;;;10.77;90.24;102257.06;5033784;28;20108;-56
2022/10/09 09:36:01;;;;;;;16.05;4.80;;;;;;;10.82;90.12;102255.31;5034865;28;20052;-58
2022/10/09 09:38:28;;;;;;;13.57;4.80;;;;;;;10.86;89.74;102250.22;5033557;28;20500;-59
2022/10/09 09:40:56;;;;;;;11.68;4.65;;;;;;;10.90;89.88;102243.22;5033171;28;20396;-58
2022/10/09 09:43:25;;;;;;;13.15;4.65;;;;;;;10.94;89.53;102236.22;5050455;28;20044;-60
2022/10/09 09:45:54;;;;;;;14.60;4.25;;;;;;;10.98;89.88;102237.41;5034673;28;20041;-60
2022/10/09 09:48:25;;;;;;;10.75;4.43;;;;;;;11.01;90.40;102236.94;5033304;28;20496;-55
2022/10/09 09:50:53;;;;;;;11.95;4.07;;;;;;;11.03;89.82;102229.34;5033335;28;20045;-55
2022/10/09 09:53:42;;;;;;;15.80;4.95;;;;;;;11.11;87.76;102224.59;5032903;28;20073;-57
2022/10/09 09:56:10;;;;;;;9.68;4.20;;;;;;;11.13;87.08;102215.13;5034515;28;20049;-57
2022/10/09 09:58:54;;;;;;;14.43;4.32;;;;;;;11.16;87.26;102224.72;5033610;28;20064;-59
2022/10/09 10:01:24;;;;;;;12.32;4.57;;;;;;;11.22;87.13;102216.44;5023953;28;20070;-56
2022/10/09 10:03:55;;;;;;;12.05;4.40;;;;;;;11.25;87.01;102215.13;5035465;28;20089;-60
2022/10/09 10:06:25;;;;;;;14.13;4.75;;;;;;;11.34;87.56;102213.69;5037617;28;20119;-59
2022/10/09 10:09:02;;;;;;;15.15;4.72;;;;;;;11.39;87.83;102202.06;5033955;28;20046;-57
2022/10/09 10:11:31;;;;;;;14.70;4.65;;;;;;;11.45;87.49;102199.22;5028327;28;20390;-58
2022/10/09 10:14:07;;;;;;;13.23;4.80;;;;;;;11.50;87.63;102193.03;5024430;28;20042;-60
2022/10/09 10:16:37;;;;;;;9.48;4.05;;;;;;;11.54;87.04;102196.09;5032781;28;20048;-57
2022/10/09 10:19:05;;;;;;;11.48;4.03;;;;;;;11.52;86.18;102194.44;5032984;28;20038;-57
2022/10/09 10:21:40;;;;;;;13.20;4.18;;;;;;;11.55;86.42;102200.50;5032640;28;20065;-60
2022/10/09 10:24:14;;;;;;;10.63;4.38;;;;;;;11.59;86.32;102194.28;5013606;28;20041;-61
2022/10/09 10:26:55;;;;;;;12.13;4.60;;;;;;;11.62;85.70;102193.00;5027607;28;20503;-58
2022/10/09 10:29:34;;;;;;;11.68;4.40;;;;;;;11.66;85.67;102181.34;5033007;28;20041;-58
2022/10/09 10:32:12;;;;;;;12.23;4.45;;;;;;;11.69;85.65;102177.31;5016444;28;20029;-59
2022/10/09 10:34:49;;;;;;;9.05;3.95;;;;;;;11.71;85.44;102176.00;5049676;28;20042;-54
2022/10/09 10:37:48;;;;;;;12.35;4.57;;;;;;;11.78;85.24;102175.84;5033778;28;20510;-56
2022/10/09 10:40:36;;;;;;;15.68;4.35;;;;;;;11.81;84.14;102169.91;5033484;28;20045;-58
2022/10/09 10:43:09;;;;;;;10.98;4.10;;;;;;;11.83;84.21;102172.38;5012790;28;20041;-57
2022/10/09 10:45:48;;;;;;;15.27;4.65;;;;;;;11.85;83.74;102160.16;5030464;28;20050;-55
2022/10/09 10:48:39;;;;;;;11.20;4.25;;;;;;;11.92;83.28;102155.41;5032779;28;20064;-60
2022/10/09 10:51:24;;;;;;;12.18;4.25;;;;;;;11.99;82.60;102154.44;5032616;28;20041;-60
2022/10/09 10:54:07;;;;;;;9.85;4.00;;;;;;;12.05;82.64;102153.44;5033420;28;20052;-56
2022/10/09 10:56:44;;;;;;;10.95;4.28;;;;;;;12.08;82.32;102144.78;5033694;28;20033;-60
2022/10/09 10:59:38;;;;;;;9.23;3.95;;;;;;;12.08;81.88;102144.78;5032143;28;20076;-58
2022/10/09 11:02:28;;;;;;;10.35;3.60;;;;;;;12.10;81.57;102140.72;5018484;28;20045;-58
2022/10/09 11:05:28;;;;;;;14.05;4.60;;;;;;;12.12;81.02;102124.06;5032430;28;20061;-59
2022/10/09 11:08:03;;;;;;;13.13;4.60;;;;;;;12.15;81.30;102132.59;5049104;28;20120;-52
2022/10/09 11:10:35;;;;;;;11.15;3.83;;;;;;;12.19;79.92;102127.47;5032249;28;20076;-58
2022/10/09 11:13:24;;;;;;;11.93;4.20;;;;;;;12.24;80.20;102130.31;5033429;28;20058;-53
2022/10/09 11:16:26;;;;;;;9.63;3.70;;;;;;;12.28;78.41;102117.78;5032302;28;20119;-57
2022/10/09 11:19:12;;;;;;;10.18;3.58;;;;;;;12.32;77.42;102110.75;5033337;28;20046;-58
2022/10/09 11:22:17;;;;;;;11.73;4.00;;;;;;;12.42;79.24;102109.28;5016112;28;20061;-58
2022/10/09 11:25:04;;;;;;;9.82;3.70;;;;;;;12.47;79.20;102106.63;5033155;28;20042;-61
2022/10/09 11:28:17;;;;;;;13.35;4.72;;;;;;;12.54;78.68;102097.16;5012010;28;20119;-58
2022/10/09 11:30:54;;;;;;;10.45;3.90;;;;;;;12.60;77.61;102098.06;5048203;28;20089;-58
2022/10/09 11:33:36;;;;;;;8.75;3.67;;;;;;;12.60;77.05;102091.78;5032475;28;20442;-57
2022/10/09 11:36:23;;;;;;;11.23;3.35;;;;;;;12.60;76.59;102091.78;5015574;28;20046;-57
2022/10/09 11:38:59;;;;;;;10.70;4.05;;;;;;;12.58;74.68;102087.41;5035965;28;20045;-57
2022/10/09 11:41:27;;;;;;;10.95;3.95;;;;;;;12.62;74.67;102078.69;5037654;28;20124;-57
2022/10/09 11:44:22;;;;;;;12.70;3.25;;;;;;;12.65;72.75;102086.38;5026956;28;20046;-58
2022/10/09 11:47:08;;;;;;;8.70;2.83;;;;;;;12.70;72.76;102073.63;5037990;28;20030;-57
2022/10/09 11:49:38;;;;;;;;;;;;;;;12.72;71.79;102074.19;5049640;28;20547;-57